createdAt,value
2018-01-20T00:02:15.439Z,71.13
2018-01-20T00:04:46.510Z,70.71
2018-01-20T00:07:17.573Z,70.25
2018-01-20T00:10:01.069Z,69.65
2018-01-20T00:12:32.177Z,69.62
2018-01-20T00:15:03.348Z,69.73
2018-01-20T00:17:34.705Z,69.75
2018-01-20T00:20:05.768Z,69.46
2018-01-20T00:22:36.864Z,68.99
2018-01-20T00:25:07.908Z,68.65
2018-01-20T00:27:40.027Z,68.44
2018-01-20T00:30:11.117Z,68.20
2018-01-20T00:32:42.211Z,68.11
2018-01-20T00:35:13.296Z,67.89
2018-01-20T00:37:44.395Z,67.78
2018-01-20T00:40:15.441Z,68.42
2018-01-20T00:42:46.544Z,68.72
2018-01-20T00:45:17.628Z,68.88
2018-01-20T00:47:48.759Z,68.93
2018-01-20T00:50:19.788Z,68.95
2018-01-20T00:52:50.846Z,69.03
2018-01-20T00:55:21.952Z,69.37
2018-01-20T00:57:53.007Z,70.10
2018-01-20T01:00:24.072Z,70.68
2018-01-20T01:02:55.120Z,71.63
2018-01-20T01:05:26.241Z,72.67
2018-01-20T01:07:57.323Z,73.49
2018-01-20T01:10:28.450Z,73.78
2018-01-20T01:12:59.667Z,74.54
2018-01-20T01:15:30.784Z,74.83
2018-01-20T01:18:01.842Z,75.59
2018-01-20T01:20:32.957Z,75.63
2018-01-20T01:23:04.043Z,75.33
2018-01-20T01:25:35.184Z,74.75
2018-01-20T01:28:06.278Z,73.97
2018-01-20T01:30:37.384Z,73.43
2018-01-20T01:33:08.481Z,73.03
2018-01-20T01:35:39.555Z,72.57
2018-01-20T01:38:10.612Z,72.38
2018-01-20T01:40:41.676Z,72.51
2018-01-20T01:43:12.804Z,72.42
2018-01-20T01:45:43.841Z,72.40
2018-01-20T01:48:14.955Z,71.79
2018-01-20T01:50:46.123Z,70.96
2018-01-20T01:53:17.182Z,70.70
2018-01-20T01:55:48.559Z,70.93
2018-01-20T01:58:19.810Z,71.33
2018-01-20T02:00:50.897Z,71.65
2018-01-20T02:03:21.988Z,72.39
2018-01-20T02:05:53.129Z,73.06
2018-01-20T02:08:24.238Z,73.64
2018-01-20T02:10:55.371Z,74.04
2018-01-20T02:13:26.441Z,74.24
2018-01-20T02:15:57.547Z,74.51
2018-01-20T02:18:28.638Z,75.03
2018-01-20T02:20:59.909Z,75.24
2018-01-20T02:23:31.004Z,75.63
2018-01-20T02:26:02.071Z,75.59
2018-01-20T02:28:33.139Z,75.13
2018-01-20T02:31:04.183Z,74.57
2018-01-20T02:33:35.313Z,74.27
2018-01-20T02:36:06.402Z,74.06
2018-01-20T02:38:37.489Z,74.02
2018-01-20T02:41:08.578Z,73.95
2018-01-20T02:43:39.671Z,73.65
2018-01-20T02:46:10.752Z,73.26
2018-01-20T02:48:41.853Z,72.92
2018-01-20T02:51:12.885Z,72.92
2018-01-20T02:53:43.977Z,72.43
2018-01-20T02:56:15.046Z,71.88
2018-01-20T02:58:46.130Z,71.42
2018-01-20T03:01:17.826Z,71.09
2018-01-20T03:03:48.893Z,71.12
2018-01-20T03:06:19.976Z,71.20
2018-01-20T03:08:51.189Z,71.19
2018-01-20T03:11:22.264Z,70.97
2018-01-20T03:13:56.405Z,70.68
2018-01-20T03:16:27.458Z,70.54
2018-01-20T03:18:58.599Z,70.36
2018-01-20T03:21:31.055Z,70.13
2018-01-20T03:24:02.144Z,69.97
2018-01-20T03:26:34.156Z,69.68
2018-01-20T03:29:05.247Z,69.57
2018-01-20T03:31:36.301Z,69.54
2018-01-20T03:34:07.399Z,69.40
2018-01-20T03:36:38.484Z,69.30
2018-01-20T03:39:10.697Z,69.25
2018-01-20T03:41:41.763Z,69.16
2018-01-20T03:44:12.865Z,69.01
2018-01-20T03:46:43.926Z,68.97
2018-01-20T03:49:15.016Z,68.95
2018-01-20T03:51:46.072Z,69.19
2018-01-20T03:54:17.199Z,69.33
2018-01-20T03:56:48.278Z,69.39
2018-01-20T03:59:19.371Z,69.45
2018-01-20T04:01:50.457Z,69.38
2018-01-20T04:04:21.536Z,69.32
2018-01-20T04:06:52.587Z,69.32
2018-01-20T04:09:23.625Z,69.23
2018-01-20T04:11:54.696Z,69.07
2018-01-20T04:14:25.775Z,68.85
2018-01-20T04:16:56.843Z,68.67
2018-01-20T04:19:27.921Z,68.39
2018-01-20T04:21:58.981Z,68.23
2018-01-20T04:24:30.026Z,68.14
2018-01-20T04:27:01.086Z,68.02
2018-01-20T04:29:32.153Z,68.22
2018-01-20T04:32:03.246Z,68.16
2018-01-20T04:34:34.313Z,68.20
2018-01-20T04:37:05.374Z,68.31
2018-01-20T04:39:36.440Z,68.28
2018-01-20T04:42:07.503Z,68.39
2018-01-20T04:44:38.602Z,68.47
2018-01-20T04:47:09.670Z,68.50
2018-01-20T04:49:40.733Z,68.18
2018-01-20T04:52:11.868Z,67.98
2018-01-20T04:54:42.929Z,67.84
2018-01-20T04:57:14.060Z,67.91
2018-01-20T04:59:45.128Z,67.80
2018-01-20T05:02:16.201Z,68.02
2018-01-20T05:04:47.295Z,68.24
2018-01-20T05:07:18.341Z,68.17
2018-01-20T05:09:49.443Z,68.16
2018-01-20T05:12:20.522Z,68.29
2018-01-20T05:14:51.621Z,68.43
2018-01-20T05:17:22.700Z,68.86
2018-01-20T05:19:53.757Z,69.35
2018-01-20T05:22:24.813Z,69.54
2018-01-20T05:24:55.893Z,69.51
2018-01-20T05:27:26.968Z,69.61
2018-01-20T05:29:58.015Z,69.76
2018-01-20T05:32:29.070Z,69.83
2018-01-20T05:35:00.159Z,70.05
2018-01-20T05:37:31.230Z,70.00
2018-01-20T05:40:02.312Z,69.72
2018-01-20T05:42:33.332Z,69.30
2018-01-20T05:45:04.407Z,69.11
2018-01-20T05:47:35.480Z,69.00
2018-01-20T05:50:06.546Z,69.06
2018-01-20T05:52:37.615Z,69.16
2018-01-20T05:55:08.687Z,69.36
2018-01-20T05:57:39.751Z,69.62
2018-01-20T06:00:10.833Z,69.73
2018-01-20T06:02:41.929Z,69.58
2018-01-20T06:05:12.965Z,69.60
2018-01-20T06:07:44.213Z,69.54
2018-01-20T06:10:15.290Z,69.37
2018-01-20T06:12:46.306Z,69.31
2018-01-20T06:15:17.396Z,69.24
2018-01-20T06:17:48.459Z,68.86
2018-01-20T06:20:19.509Z,68.40
2018-01-20T06:22:50.538Z,68.25
2018-01-20T06:25:21.623Z,68.23
2018-01-20T06:27:52.684Z,68.59
2018-01-20T06:30:23.767Z,68.62
2018-01-20T06:32:54.848Z,68.69
2018-01-20T06:35:25.969Z,68.59
2018-01-20T06:37:57.090Z,68.74
2018-01-20T06:40:28.233Z,69.22
2018-01-20T06:42:59.459Z,69.59
2018-01-20T06:45:30.582Z,69.31
2018-01-20T06:48:01.622Z,69.19
2018-01-20T06:50:32.692Z,68.95
2018-01-20T06:53:03.760Z,69.32
2018-01-20T06:55:34.831Z,70.20
2018-01-20T06:58:05.889Z,70.63
2018-01-20T07:00:37.023Z,70.88
2018-01-20T07:03:08.102Z,70.88
2018-01-20T07:05:39.219Z,71.16
2018-01-20T07:08:10.270Z,71.75
2018-01-20T07:10:41.412Z,72.29
2018-01-20T07:13:12.501Z,72.82
2018-01-20T07:15:43.598Z,73.05
2018-01-20T07:18:14.702Z,73.23
2018-01-20T07:20:45.803Z,73.69
2018-01-20T07:23:16.883Z,73.75
2018-01-20T07:25:47.960Z,73.79
2018-01-20T07:28:19.073Z,73.97
2018-01-20T07:30:50.195Z,74.01
2018-01-20T07:33:21.383Z,73.75
2018-01-20T07:35:52.526Z,73.05
2018-01-20T07:38:23.692Z,72.58
2018-01-20T07:40:54.767Z,72.16
2018-01-20T07:43:25.887Z,71.71
2018-01-20T07:45:56.971Z,71.04
2018-01-20T07:48:28.112Z,70.30
2018-01-20T07:50:59.171Z,70.09
2018-01-20T07:53:30.464Z,69.97
2018-01-20T07:56:01.518Z,70.23
2018-01-20T07:58:32.664Z,70.54
2018-01-20T08:01:03.816Z,70.20
2018-01-20T08:03:34.888Z,70.17
2018-01-20T08:06:06.018Z,71.11
2018-01-20T08:08:41.685Z,71.24
2018-01-20T08:11:12.783Z,70.88
2018-01-20T08:13:43.834Z,71.16
2018-01-20T08:16:15.085Z,71.75
2018-01-20T08:18:46.152Z,72.16
2018-01-20T08:21:17.257Z,72.29
2018-01-20T08:23:48.370Z,72.26
2018-01-20T08:26:19.543Z,72.16
2018-01-20T08:28:50.617Z,71.49
2018-01-20T08:31:21.707Z,71.15
2018-01-20T08:33:52.780Z,70.98
2018-01-20T08:36:23.882Z,70.54
2018-01-20T08:38:54.984Z,69.99
2018-01-20T08:41:26.058Z,69.32
2018-01-20T08:43:57.179Z,69.25
2018-01-20T08:46:28.272Z,69.39
2018-01-20T08:48:59.410Z,68.71
2018-01-20T08:51:30.464Z,68.01
2018-01-20T08:54:01.783Z,67.81
2018-01-20T08:56:32.830Z,67.51
2018-01-20T08:59:03.952Z,67.68
2018-01-20T09:01:35.071Z,67.04
2018-01-20T09:04:06.201Z,66.00
2018-01-20T09:06:37.341Z,66.23
2018-01-20T09:09:08.404Z,65.87
2018-01-20T09:11:39.475Z,66.15
2018-01-20T09:14:10.564Z,66.87
2018-01-20T09:16:41.652Z,67.58
2018-01-20T09:19:12.707Z,68.07
2018-01-20T09:21:43.787Z,67.46
2018-01-20T09:24:14.899Z,66.24
2018-01-20T09:26:45.996Z,66.71
2018-01-20T09:29:17.044Z,67.45
2018-01-20T09:31:48.165Z,67.20
2018-01-20T09:34:19.245Z,66.67
2018-01-20T09:36:50.356Z,66.25
2018-01-20T09:39:21.442Z,65.68
2018-01-20T09:41:52.537Z,63.23
2018-01-20T09:44:24.325Z,58.32
2018-01-20T09:46:55.442Z,50.53
2018-01-20T09:49:26.515Z,43.30
2018-01-20T09:51:57.617Z,40.82
2018-01-20T09:54:28.730Z,39.29
2018-01-20T09:56:59.792Z,38.40
2018-01-20T09:59:30.884Z,37.91
2018-01-20T10:02:02.000Z,37.45
2018-01-20T10:04:33.068Z,38.08
2018-01-20T10:07:04.173Z,39.58
2018-01-20T10:09:35.245Z,41.90
2018-01-20T10:12:06.295Z,43.45
2018-01-20T10:14:37.327Z,43.91
2018-01-20T10:17:08.452Z,42.11
2018-01-20T10:19:39.522Z,42.44
2018-01-20T10:22:10.581Z,43.88
2018-01-20T10:24:41.634Z,44.88
2018-01-20T10:27:12.703Z,46.20
2018-01-20T10:29:43.804Z,47.25
2018-01-20T10:32:14.858Z,47.28
2018-01-20T10:34:45.936Z,48.71
2018-01-20T10:37:16.954Z,49.51
2018-01-20T10:39:48.018Z,50.35
2018-01-20T10:42:19.174Z,51.52
2018-01-20T10:44:50.224Z,51.73
2018-01-20T10:47:21.325Z,51.19
2018-01-20T10:49:52.413Z,51.44
2018-01-20T10:52:23.582Z,50.07
2018-01-20T10:54:54.650Z,47.72
2018-01-20T10:57:25.755Z,45.59
2018-01-20T10:59:56.822Z,44.04
2018-01-20T11:02:27.900Z,43.47
2018-01-20T11:04:58.939Z,43.69
2018-01-20T11:07:30.215Z,44.31
2018-01-20T11:10:01.496Z,44.30
2018-01-20T11:12:32.566Z,45.44
2018-01-20T11:15:03.620Z,45.68
2018-01-20T11:17:34.671Z,46.41
2018-01-20T11:20:05.746Z,47.34
2018-01-20T11:22:36.845Z,48.33
2018-01-20T11:25:07.935Z,49.12
2018-01-20T11:27:39.189Z,49.25
2018-01-20T11:30:10.268Z,49.64
2018-01-20T11:32:41.362Z,49.53
